createdAt,value
2022-10-18T00:01:04.008Z,13.50
2022-10-18T00:03:32.008Z,13.50
2022-10-18T00:05:59.689Z,13.50
2022-10-18T00:08:27.760Z,13.50
2022-10-18T00:10:55.247Z,13.40
2022-10-18T00:13:22.791Z,13.40
2022-10-18T00:15:54.848Z,13.40
2022-10-18T00:18:34.078Z,13.40
2022-10-18T00:21:14.280Z,13.40
2022-10-18T00:23:41.803Z,13.40
2022-10-18T00:26:13.414Z,13.30
2022-10-18T00:28:41.466Z,13.30
2022-10-18T00:31:37.638Z,13.30
2022-10-18T00:34:07.570Z,13.30
2022-10-18T00:36:35.313Z,13.20
2022-10-18T00:39:05.707Z,13.20
2022-10-18T00:41:35.300Z,13.20
2022-10-18T00:44:06.281Z,13.20
2022-10-18T00:46:39.281Z,13.10
2022-10-18T00:49:19.267Z,13.10
2022-10-18T00:51:57.131Z,13.10
2022-10-18T00:54:25.664Z,13.10
2022-10-18T00:56:53.012Z,13.00
2022-10-18T00:59:20.831Z,13.00
2022-10-18T01:01:48.240Z,13.00
2022-10-18T01:04:16.898Z,13.00
2022-10-18T01:07:19.259Z,12.90
2022-10-18T01:10:25.283Z,12.90
2022-10-18T01:13:13.586Z,12.90
2022-10-18T01:16:19.771Z,12.90
2022-10-18T01:19:21.150Z,12.80
2022-10-18T01:22:25.934Z,12.80
2022-10-18T01:25:07.067Z,12.80
2022-10-18T01:27:57.278Z,12.80
2022-10-18T01:30:40.398Z,12.70
2022-10-18T01:33:28.279Z,12.70
2022-10-18T01:36:01.662Z,12.70
2022-10-18T01:38:30.530Z,12.60
2022-10-18T01:40:59.608Z,12.60
2022-10-18T01:43:29.758Z,12.60
2022-10-18T01:46:00.512Z,12.60
2022-10-18T01:48:27.847Z,12.60
2022-10-18T01:50:55.112Z,12.60
2022-10-18T01:53:32.783Z,12.50
2022-10-18T01:56:36.604Z,12.50
2022-10-18T01:59:28.865Z,12.50
2022-10-18T02:01:55.942Z,12.50
2022-10-18T02:04:46.975Z,12.50
2022-10-18T02:07:42.382Z,12.40
2022-10-18T02:10:43.750Z,12.40
2022-10-18T02:13:16.189Z,12.40
2022-10-18T02:15:46.621Z,12.40
2022-10-18T02:18:23.213Z,12.40
2022-10-18T02:20:51.770Z,12.40
2022-10-18T02:23:22.919Z,12.40
2022-10-18T02:25:57.033Z,12.40
2022-10-18T02:31:07.356Z,12.40
2022-10-18T02:33:43.501Z,12.30
2022-10-18T02:36:22.524Z,12.30
2022-10-18T02:38:55.633Z,12.30
2022-10-18T02:41:27.651Z,12.30
2022-10-18T02:43:54.927Z,12.30
2022-10-18T02:46:22.736Z,12.30
2022-10-18T02:48:50.159Z,12.30
2022-10-18T02:51:17.573Z,12.30
2022-10-18T02:53:44.774Z,12.30
2022-10-18T02:56:12.118Z,12.20
2022-10-18T02:58:39.328Z,12.20
2022-10-18T03:01:06.473Z,12.20
2022-10-18T03:03:33.648Z,12.20
2022-10-18T03:06:00.840Z,12.20
2022-10-18T03:08:28.126Z,12.10
2022-10-18T03:10:55.340Z,12.10
2022-10-18T03:13:22.696Z,12.10
2022-10-18T03:15:49.921Z,12.10
2022-10-18T03:18:16.991Z,12.10
2022-10-18T03:20:44.177Z,12.10
2022-10-18T03:23:11.229Z,12.00
2022-10-18T03:25:40.539Z,12.00
2022-10-18T03:28:10.021Z,12.00
2022-10-18T03:30:38.970Z,12.00
2022-10-18T03:33:07.956Z,11.90
2022-10-18T03:35:35.118Z,11.90
2022-10-18T03:38:02.369Z,11.90
2022-10-18T03:42:56.737Z,11.80
2022-10-18T03:45:28.829Z,11.80
2022-10-18T03:47:58.388Z,11.80
2022-10-18T03:50:25.562Z,11.80
2022-10-18T03:52:54.247Z,11.80
2022-10-18T03:55:21.560Z,11.70
2022-10-18T03:57:48.709Z,11.70
2022-10-18T04:00:16.993Z,11.70
2022-10-18T04:02:44.128Z,11.70
2022-10-18T04:05:11.347Z,11.70
2022-10-18T04:07:38.679Z,11.70
2022-10-18T04:10:06.927Z,11.70
2022-10-18T04:12:34.343Z,11.70
2022-10-18T04:15:02.381Z,11.70
2022-10-18T04:17:29.822Z,11.70
2022-10-18T04:19:57.257Z,11.70
2022-10-18T04:22:24.451Z,11.70
2022-10-18T04:24:53.416Z,11.70
2022-10-18T04:27:22.245Z,11.70
2022-10-18T04:29:49.439Z,11.70
2022-10-18T04:32:16.647Z,11.70
2022-10-18T04:37:10.998Z,11.60
2022-10-18T04:39:38.874Z,11.70
2022-10-18T04:42:06.374Z,11.60
2022-10-18T04:44:34.471Z,11.70
2022-10-18T04:47:01.733Z,11.70
2022-10-18T04:49:28.810Z,11.60
2022-10-18T04:51:55.919Z,11.60
2022-10-18T04:54:25.192Z,11.60
2022-10-18T04:56:55.571Z,11.60
2022-10-18T04:59:22.861Z,11.60
2022-10-18T05:01:50.126Z,11.60
2022-10-18T05:04:17.390Z,11.60
2022-10-18T05:06:57.161Z,11.60
2022-10-18T05:09:43.252Z,11.60
2022-10-18T05:12:11.630Z,11.60
2022-10-18T05:14:38.777Z,11.60
2022-10-18T05:17:05.998Z,11.60
2022-10-18T05:19:33.084Z,11.60
2022-10-18T05:22:00.316Z,11.60
2022-10-18T05:24:28.006Z,11.60
2022-10-18T05:27:03.095Z,11.60
2022-10-18T05:29:40.333Z,11.60
2022-10-18T05:32:13.887Z,11.60
2022-10-18T05:34:44.284Z,11.60
2022-10-18T05:37:15.482Z,11.60
2022-10-18T05:40:07.517Z,11.70
2022-10-18T05:42:57.474Z,11.70
2022-10-18T05:45:33.982Z,11.80
2022-10-18T05:48:12.681Z,11.80
2022-10-18T05:51:01.583Z,11.90
2022-10-18T05:53:38.850Z,11.90
2022-10-18T05:56:13.251Z,12.00
2022-10-18T05:58:54.264Z,12.00
2022-10-18T06:01:21.771Z,12.10
2022-10-18T06:03:49.108Z,12.10
2022-10-18T06:06:16.485Z,12.20
2022-10-18T06:08:44.091Z,12.20
2022-10-18T06:11:15.593Z,12.30
2022-10-18T06:13:44.279Z,12.30
2022-10-18T06:16:12.708Z,12.40
2022-10-18T06:18:40.417Z,12.50
2022-10-18T06:21:08.328Z,12.60
2022-10-18T06:23:35.783Z,12.60
2022-10-18T06:26:07.779Z,12.70
2022-10-18T06:28:36.172Z,12.70
2022-10-18T06:31:05.469Z,12.80
2022-10-18T06:33:34.005Z,12.90
2022-10-18T06:36:06.195Z,13.00
2022-10-18T06:38:33.970Z,13.00
2022-10-18T06:41:01.403Z,13.00
2022-10-18T06:43:28.831Z,13.10
2022-10-18T06:45:56.903Z,13.20
2022-10-18T06:48:24.691Z,13.50
2022-10-18T06:51:01.117Z,14.10
2022-10-18T06:53:36.237Z,14.60
2022-10-18T06:56:13.614Z,15.20
2022-10-18T06:58:41.234Z,15.70
2022-10-18T07:01:11.031Z,16.10
2022-10-18T07:03:38.883Z,16.50
2022-10-18T07:06:10.394Z,16.90
2022-10-18T07:08:38.868Z,16.80
2022-10-18T07:11:08.719Z,16.90
2022-10-18T07:13:36.088Z,17.30
2022-10-18T07:16:15.789Z,17.50
2022-10-18T07:18:50.192Z,17.50
2022-10-18T07:21:22.502Z,17.30
2022-10-18T07:23:51.347Z,17.20
2022-10-18T07:26:31.497Z,17.00
2022-10-18T07:29:10.682Z,16.80
2022-10-18T07:31:39.229Z,16.80
2022-10-18T07:34:07.895Z,16.70
2022-10-18T07:36:35.769Z,16.60
2022-10-18T07:39:04.458Z,16.60
2022-10-18T07:41:33.859Z,16.60
2022-10-18T07:44:02.551Z,16.60
2022-10-18T07:46:30.165Z,16.60
2022-10-18T07:48:59.596Z,16.60
2022-10-18T07:51:28.252Z,16.70
2022-10-18T07:53:55.562Z,16.70
2022-10-18T07:56:23.259Z,16.80
2022-10-18T07:58:53.844Z,16.80
2022-10-18T08:01:25.979Z,16.90
2022-10-18T08:03:54.143Z,16.80
2022-10-18T08:06:23.002Z,16.80
2022-10-18T08:08:50.695Z,16.90
2022-10-18T08:11:23.424Z,16.90
2022-10-18T08:13:51.693Z,17.00
2022-10-18T08:16:29.771Z,17.00
2022-10-18T08:18:58.963Z,17.10
2022-10-18T08:21:27.061Z,17.20
2022-10-18T08:23:54.522Z,17.30
2022-10-18T08:26:23.962Z,17.20
2022-10-18T08:29:10.427Z,17.10
2022-10-18T08:31:39.453Z,17.00
2022-10-18T08:34:06.988Z,16.90
2022-10-18T08:36:34.389Z,16.70
2022-10-18T08:39:03.051Z,16.50
2022-10-18T08:41:38.495Z,16.50
2022-10-18T08:44:13.754Z,16.50
2022-10-18T08:46:47.905Z,16.60
2022-10-18T08:49:45.715Z,16.60
2022-10-18T08:52:45.169Z,16.60
2022-10-18T08:55:36.186Z,16.70
2022-10-18T08:58:21.576Z,16.70
2022-10-18T09:01:11.048Z,16.80
2022-10-18T09:03:59.949Z,16.90
2022-10-18T09:07:14.460Z,17.00
2022-10-18T09:10:07.407Z,17.10
2022-10-18T09:13:16.397Z,17.20
2022-10-18T09:16:05.933Z,17.30
2022-10-18T09:18:57.649Z,17.30
2022-10-18T09:21:54.836Z,17.40
2022-10-18T09:24:28.304Z,17.50
2022-10-18T09:27:03.194Z,17.60
2022-10-18T09:30:09.151Z,17.60
2022-10-18T09:32:57.998Z,17.70
2022-10-18T09:35:30.712Z,17.70
2022-10-18T09:38:09.211Z,17.90
2022-10-18T09:40:46.739Z,17.90
2022-10-18T09:43:20.652Z,18.00
2022-10-18T09:45:48.872Z,18.10
2022-10-18T09:48:20.796Z,18.10
2022-10-18T09:50:54.503Z,18.20
2022-10-18T09:53:38.879Z,18.30
2022-10-18T09:56:17.399Z,18.40
2022-10-18T09:58:47.144Z,18.40
2022-10-18T10:01:30.564Z,18.50
2022-10-18T10:03:58.222Z,18.50
2022-10-18T10:06:28.251Z,18.60
2022-10-18T10:09:19.366Z,18.60
2022-10-18T10:11:49.052Z,18.70
2022-10-18T10:14:19.586Z,18.80
2022-10-18T10:16:54.288Z,18.90
2022-10-18T10:19:34.783Z,19.00
2022-10-18T10:22:14.179Z,19.00
2022-10-18T10:24:50.551Z,19.10
2022-10-18T10:27:23.751Z,19.20
2022-10-18T10:29:56.578Z,19.20
2022-10-18T10:32:30.577Z,19.30
2022-10-18T10:34:58.895Z,19.30
2022-10-18T10:37:35.774Z,19.40
2022-10-18T10:40:19.288Z,19.40
2022-10-18T10:43:12.963Z,19.50
2022-10-18T10:46:00.504Z,19.50
2022-10-18T10:48:33.256Z,19.60
2022-10-18T10:51:00.868Z,19.60
2022-10-18T10:53:41.375Z,19.70
2022-10-18T10:56:53.452Z,19.70
2022-10-18T10:59:23.027Z,19.80
2022-10-18T11:02:17.630Z,19.90
2022-10-18T11:04:46.717Z,19.90
2022-10-18T11:07:34.024Z,20.00
2022-10-18T11:10:10.074Z,20.00
2022-10-18T11:13:02.609Z,20.10
2022-10-18T11:15:36.601Z,20.10
2022-10-18T11:18:18.996Z,20.10
2022-10-18T11:20:56.500Z,20.20
2022-10-18T11:23:47.572Z,20.20
2022-10-18T11:26:57.852Z,20.20
2022-10-18T11:29:43.416Z,20.30
2022-10-18T11:32:32.007Z,20.30
2022-10-18T11:35:25.440Z,20.30
2022-10-18T11:38:13.183Z,20.40
2022-10-18T11:40:49.375Z,20.40
2022-10-18T11:43:57.211Z,20.40
2022-10-18T11:46:42.075Z,20.50
2022-10-18T11:49:19.290Z,20.50
2022-10-18T11:52:26.567Z,20.60
2022-10-18T11:55:18.267Z,20.60
2022-10-18T11:58:14.706Z,20.70
2022-10-18T12:00:50.762Z,20.70
2022-10-18T12:03:39.098Z,20.80
2022-10-18T12:06:15.021Z,20.80
2022-10-18T12:08:49.418Z,20.80
2022-10-18T12:11:22.700Z,20.90
2022-10-18T12:13:57.858Z,20.90
2022-10-18T12:16:49.941Z,20.90
2022-10-18T12:19:27.830Z,20.90
2022-10-18T12:22:08.812Z,20.90
2022-10-18T12:24:36.252Z,20.90
2022-10-18T12:27:03.945Z,20.90
2022-10-18T12:29:54.945Z,21.00
2022-10-18T12:32:27.153Z,21.00
2022-10-18T12:35:02.490Z,21.00
2022-10-18T12:37:57.157Z,21.00
2022-10-18T12:40:36.976Z,21.00
2022-10-18T12:43:09.886Z,21.00
2022-10-18T12:45:50.941Z,21.00
2022-10-18T12:48:31.761Z,21.00
2022-10-18T12:51:00.554Z,21.00
2022-10-18T12:53:29.115Z,21.10
2022-10-18T12:56:28.686Z,21.10
2022-10-18T12:59:14.148Z,21.10
2022-10-18T13:01:50.598Z,21.20
2022-10-18T13:04:36.133Z,21.20
2022-10-18T13:07:08.023Z,21.20
2022-10-18T13:09:41.340Z,21.20
2022-10-18T13:12:15.194Z,21.20
2022-10-18T13:14:54.488Z,21.30
2022-10-18T13:17:49.601Z,21.20
2022-10-18T13:20:30.830Z,21.20
2022-10-18T13:26:11.450Z,21.20
2022-10-18T13:29:02.949Z,21.20
2022-10-18T13:31:53.446Z,21.20
2022-10-18T13:34:39.223Z,21.20
2022-10-18T13:37:20.824Z,21.10
2022-10-18T13:39:48.331Z,21.10
2022-10-18T13:42:15.489Z,21.10
2022-10-18T13:44:50.324Z,21.10
2022-10-18T13:47:35.945Z,21.10
2022-10-18T13:52:54.874Z,21.10
2022-10-18T13:55:29.161Z,21.00
2022-10-18T13:58:05.406Z,21.00
2022-10-18T14:01:14.076Z,21.00
2022-10-18T14:04:02.234Z,21.00
2022-10-18T14:06:42.497Z,21.00
2022-10-18T14:09:25.779Z,21.00
2022-10-18T14:12:38.240Z,20.90
2022-10-18T14:15:21.399Z,20.90
2022-10-18T14:17:55.146Z,20.90
2022-10-18T14:20:49.073Z,20.90
2022-10-18T14:23:20.452Z,20.90
2022-10-18T14:25:48.502Z,20.90
2022-10-18T14:28:31.528Z,20.90
2022-10-18T14:31:19.725Z,20.90
2022-10-18T14:33:58.981Z,20.90
2022-10-18T14:36:46.600Z,20.90
2022-10-18T14:39:28.244Z,20.80
2022-10-18T14:41:58.053Z,20.80
2022-10-18T14:44:30.868Z,20.80
2022-10-18T14:47:04.019Z,20.80
2022-10-18T14:49:32.352Z,20.70
2022-10-18T14:52:01.156Z,20.60
2022-10-18T14:54:37.479Z,20.60
2022-10-18T14:57:08.460Z,20.60
2022-10-18T14:59:53.061Z,20.50
2022-10-18T15:02:25.637Z,20.40
2022-10-18T15:05:10.796Z,20.40
2022-10-18T15:07:39.952Z,20.30
2022-10-18T15:10:16.589Z,20.20
2022-10-18T15:13:08.125Z,20.10
2022-10-18T15:15:35.178Z,20.00
2022-10-18T15:18:05.391Z,20.00
2022-10-18T15:20:42.661Z,19.90
2022-10-18T15:23:25.291Z,19.80
2022-10-18T15:26:02.468Z,19.70
2022-10-18T15:28:50.271Z,19.60
2022-10-18T15:31:43.138Z,19.50
2022-10-18T15:34:27.834Z,19.50
2022-10-18T15:37:14.870Z,19.40
2022-10-18T15:39:42.225Z,19.30
2022-10-18T15:42:38.457Z,19.20
2022-10-18T15:45:25.681Z,19.10
2022-10-18T15:48:10.970Z,19.00
2022-10-18T15:50:41.542Z,18.90
2022-10-18T15:53:21.156Z,18.80
2022-10-18T15:56:06.379Z,18.70
2022-10-18T15:58:45.399Z,18.60
2022-10-18T16:01:26.801Z,18.50
2022-10-18T16:06:26.907Z,18.30
2022-10-18T16:08:54.948Z,18.30
2022-10-18T16:11:25.861Z,18.20
2022-10-18T16:13:57.826Z,18.10
2022-10-18T16:16:29.557Z,18.10
2022-10-18T16:18:57.888Z,18.00
2022-10-18T16:21:38.319Z,17.90
2022-10-18T16:24:10.830Z,17.90
2022-10-18T16:26:38.992Z,17.80
2022-10-18T16:29:11.195Z,17.70
2022-10-18T16:31:39.734Z,17.70
2022-10-18T16:34:10.983Z,17.60
2022-10-18T16:36:38.460Z,17.60
2022-10-18T16:39:14.670Z,17.50
2022-10-18T16:41:41.943Z,17.50
2022-10-18T16:44:09.230Z,17.40
2022-10-18T16:46:37.209Z,17.40
2022-10-18T16:49:06.194Z,17.30
2022-10-18T16:51:42.671Z,17.30
2022-10-18T16:54:10.403Z,17.30
2022-10-18T16:56:39.604Z,17.20
2022-10-18T16:59:07.411Z,17.20
2022-10-18T17:01:36.101Z,17.20
2022-10-18T17:04:04.268Z,17.10
2022-10-18T17:06:33.681Z,17.30
2022-10-18T17:09:02.213Z,17.40
2022-10-18T17:11:31.840Z,17.30
2022-10-18T17:13:59.187Z,17.30
2022-10-18T17:16:33.682Z,17.30
2022-10-18T17:19:23.553Z,17.20
2022-10-18T17:21:50.895Z,17.20
2022-10-18T17:24:21.385Z,17.20
2022-10-18T17:26:48.723Z,17.20
2022-10-18T17:29:16.206Z,17.20
2022-10-18T17:31:43.636Z,17.20
2022-10-18T17:34:11.982Z,17.20
2022-10-18T17:36:40.328Z,17.30
2022-10-18T17:39:13.739Z,17.30
2022-10-18T17:41:40.946Z,17.30
2022-10-18T17:44:08.300Z,17.30
2022-10-18T17:46:35.762Z,17.30
2022-10-18T17:49:03.329Z,17.30
2022-10-18T17:51:31.921Z,17.30
2022-10-18T17:53:59.229Z,17.30
2022-10-18T17:56:31.176Z,17.40
2022-10-18T17:58:58.614Z,17.40
2022-10-18T18:01:26.025Z,17.40
2022-10-18T18:04:01.801Z,17.40
2022-10-18T18:06:39.108Z,17.40
2022-10-18T18:09:12.522Z,17.40
2022-10-18T18:11:43.628Z,17.40
2022-10-18T18:14:13.188Z,17.30
2022-10-18T18:16:47.655Z,17.30
2022-10-18T18:19:15.878Z,17.30
2022-10-18T18:21:43.468Z,17.20
2022-10-18T18:24:11.402Z,17.10
2022-10-18T18:26:40.523Z,17.10
2022-10-18T18:29:09.664Z,17.00
2022-10-18T18:31:40.045Z,17.00
2022-10-18T18:34:10.473Z,16.90
2022-10-18T18:36:38.190Z,16.80
2022-10-18T18:39:06.113Z,16.80
2022-10-18T18:41:33.804Z,16.70
2022-10-18T18:44:05.156Z,16.70
2022-10-18T18:46:38.443Z,16.60
2022-10-18T18:49:08.429Z,16.60
2022-10-18T18:51:38.176Z,16.60
2022-10-18T18:54:12.386Z,16.50
2022-10-18T18:56:41.077Z,16.50
2022-10-18T18:59:08.854Z,16.40
2022-10-18T19:01:38.407Z,16.50
2022-10-18T19:04:09.225Z,16.40
2022-10-18T19:06:42.956Z,16.40
2022-10-18T19:09:25.642Z,16.40
2022-10-18T19:11:58.341Z,16.50
2022-10-18T19:14:26.160Z,16.80
2022-10-18T19:16:57.554Z,17.00
2022-10-18T19:19:28.492Z,17.20
2022-10-18T19:22:00.471Z,17.30
2022-10-18T19:24:30.586Z,17.40
2022-10-18T19:27:05.276Z,17.40
2022-10-18T19:29:36.349Z,17.50
2022-10-18T19:32:08.680Z,17.50
2022-10-18T19:34:36.239Z,17.60
2022-10-18T19:37:05.459Z,17.70
2022-10-18T19:39:36.911Z,17.80
2022-10-18T19:42:15.996Z,17.80
2022-10-18T19:44:46.056Z,17.90
2022-10-18T19:47:14.798Z,18.00
2022-10-18T19:49:43.094Z,18.00
2022-10-18T19:52:12.546Z,18.10
2022-10-18T19:54:40.196Z,18.10
2022-10-18T19:57:07.803Z,18.10
2022-10-18T19:59:36.134Z,18.10
2022-10-18T20:02:04.862Z,18.00
2022-10-18T20:04:35.022Z,18.00
2022-10-18T20:07:03.288Z,18.00
2022-10-18T20:09:30.891Z,18.00
2022-10-18T20:11:58.179Z,18.00
2022-10-18T20:14:25.938Z,17.90
2022-10-18T20:16:53.237Z,17.90
2022-10-18T20:19:20.699Z,17.80
2022-10-18T20:21:48.148Z,17.80
2022-10-18T20:24:15.557Z,17.70
2022-10-18T20:26:43.779Z,17.70
2022-10-18T20:29:11.307Z,17.70
2022-10-18T20:31:39.478Z,17.70
2022-10-18T20:34:11.827Z,17.70
2022-10-18T20:36:57.735Z,17.70
2022-10-18T20:39:25.212Z,17.70
2022-10-18T20:41:52.609Z,17.60
2022-10-18T20:44:21.011Z,17.60
2022-10-18T20:46:48.802Z,17.60
2022-10-18T20:49:19.404Z,17.50
2022-10-18T20:51:46.799Z,17.60
2022-10-18T20:54:14.230Z,17.50
2022-10-18T20:56:42.138Z,17.60
2022-10-18T20:59:10.203Z,17.60
2022-10-18T21:01:39.585Z,17.60
2022-10-18T21:04:10.783Z,17.60
2022-10-18T21:06:42.047Z,17.60
2022-10-18T21:09:14.287Z,17.70
2022-10-18T21:11:46.599Z,17.70
2022-10-18T21:14:20.757Z,17.70
2022-10-18T21:16:50.058Z,17.80
2022-10-18T21:19:27.938Z,17.80
2022-10-18T21:21:57.553Z,17.90
2022-10-18T21:24:26.537Z,17.90
2022-10-18T21:26:54.790Z,18.00
2022-10-18T21:29:24.647Z,18.20
2022-10-18T21:31:59.353Z,18.20
2022-10-18T21:34:27.238Z,18.20
2022-10-18T21:36:54.537Z,18.20
2022-10-18T21:41:56.462Z,18.30
2022-10-18T21:44:23.940Z,18.30
2022-10-18T21:46:52.616Z,18.40
2022-10-18T21:49:20.382Z,18.40
2022-10-18T21:51:47.857Z,18.40
2022-10-18T21:54:16.633Z,18.40
2022-10-18T21:56:44.293Z,18.40
2022-10-18T21:59:13.760Z,18.50
2022-10-18T22:01:41.270Z,18.40
2022-10-18T22:04:22.320Z,18.10
2022-10-18T22:06:50.786Z,18.00
2022-10-18T22:09:19.092Z,17.80
2022-10-18T22:11:50.194Z,17.60
2022-10-18T22:14:17.836Z,17.40
2022-10-18T22:16:45.043Z,17.30
2022-10-18T22:19:12.582Z,17.20
2022-10-18T22:21:40.068Z,17.10
2022-10-18T22:24:10.006Z,17.00
2022-10-18T22:26:41.226Z,16.90
2022-10-18T22:29:28.746Z,16.90
2022-10-18T22:31:56.176Z,16.80
2022-10-18T22:34:31.097Z,16.70
2022-10-18T22:36:58.358Z,16.60
2022-10-18T22:39:25.725Z,16.60
2022-10-18T22:41:56.321Z,16.50
2022-10-18T22:44:23.902Z,16.40
2022-10-18T22:46:51.346Z,16.40
2022-10-18T22:49:19.063Z,16.30
2022-10-18T22:51:46.545Z,16.30
2022-10-18T22:54:14.046Z,16.30
2022-10-18T22:56:41.227Z,16.20
2022-10-18T22:59:08.509Z,16.30
2022-10-18T23:01:36.095Z,16.20
2022-10-18T23:04:03.632Z,16.20
2022-10-18T23:06:36.009Z,16.20
2022-10-18T23:09:06.053Z,16.10
2022-10-18T23:11:34.585Z,16.10
2022-10-18T23:14:03.810Z,16.20
2022-10-18T23:16:31.157Z,16.10
2022-10-18T23:18:59.291Z,16.10
2022-10-18T23:21:28.241Z,16.00
2022-10-18T23:23:56.283Z,16.00
2022-10-18T23:26:25.886Z,16.00
2022-10-18T23:28:53.953Z,16.00
2022-10-18T23:31:23.695Z,16.00
2022-10-18T23:33:53.674Z,16.00
2022-10-18T23:36:21.530Z,16.00
2022-10-18T23:38:48.710Z,16.00
2022-10-18T23:41:16.749Z,16.00
2022-10-18T23:43:44.676Z,16.10
2022-10-18T23:46:13.334Z,16.00
2022-10-18T23:48:40.655Z,16.10
2022-10-18T23:51:08.452Z,16.10
2022-10-18T23:53:36.426Z,16.10
2022-10-18T23:56:09.359Z,16.10
2022-10-18T23:58:37.607Z,16.20
